Time,TemperatureF,DewpointF,PressureIn,WindDirection,WindDirectionDegrees,WindSpeedMPH,WindSpeedGustMPH,Humidity,HourlyPrecipIn,Conditions,Clouds,dailyrainin,SoftwareType,DateUTC
2013-06-03 00:01:00,80.0,75.4,29.95,SW,221,2.0,4.0,86,0.00,,,0.00,Wunderground v.1.15,2013-06-03 04:01:00,
2013-06-03 00:05:00,79.9,75.3,29.94,WSW,252,2.0,4.0,86,0.00,,,0.00,Wunderground v.1.15,2013-06-03 04:05:00,
2013-06-03 00:10:00,79.8,75.2,29.94,SW,214,2.0,2.0,86,0.00,,,0.00,Wunderground v.1.15,2013-06-03 04:10:00,
2013-06-03 00:20:00,79.7,75.5,29.93,SSW,205,1.0,1.0,87,0.00,,,0.00,Wunderground v.1.15,2013-06-03 04:20:00,
2013-06-03 00:25:00,79.6,75.4,29.93,SSW,200,1.0,2.0,87,0.00,,,0.00,Wunderground v.1.15,2013-06-03 04:25:00,
2013-06-03 00:30:00,79.6,75.4,29.93,SSW,200,1.0,1.0,87,0.00,,,0.00,Wunderground v.1.15,2013-06-03 04:30:00,
2013-06-03 00:40:00,79.4,75.2,29.93,SSW,202,1.0,2.0,87,0.00,,,0.00,Wunderground v.1.15,2013-06-03 04:40:00,
2013-06-03 00:45:00,79.3,75.1,29.93,SSW,202,1.0,2.0,87,0.00,,,0.00,Wunderground v.1.15,2013-06-03 04:45:00,
2013-06-03 00:50:00,79.3,75.1,29.93,SSW,202,0.0,0.0,87,0.00,,,0.00,Wunderground v.1.15,2013-06-03 04:50:00,
2013-06-03 00:55:00,79.2,75.0,29.93,SSW,202,0.0,1.0,87,0.00,,,0.00,Wunderground v.1.15,2013-06-03 04:55:00,
2013-06-03 01:05:00,79.2,75.0,29.93,SSW,207,1.0,6.0,87,0.00,,,0.00,Wunderground v.1.15,2013-06-03 05:05:00,
2013-06-03 01:15:00,79.1,74.9,29.92,SSW,207,0.0,6.0,87,0.00,,,0.00,Wunderground v.1.15,2013-06-03 05:15:00,
2013-06-03 01:25:00,79.1,74.9,29.92,SSW,207,0.0,6.0,87,0.00,,,0.00,Wunderground v.1.15,2013-06-03 05:25:00,
2013-06-03 01:35:00,79.1,74.9,29.92,SSW,207,0.0,6.0,87,0.00,,,0.00,Wunderground v.1.15,2013-06-03 05:35:00,
2013-06-03 01:45:00,79.1,74.9,29.92,SSW,198,1.0,6.0,87,0.00,,,0.00,Wunderground v.1.15,2013-06-03 05:45:00,
2013-06-03 01:55:00,79.0,74.8,29.92,South,178,1.0,6.0,87,0.00,,,0.00,Wunderground v.1.15,2013-06-03 05:55:00,
2013-06-03 02:05:00,78.8,74.6,29.92,SSW,198,1.0,6.0,87,0.00,,,0.00,Wunderground v.1.15,2013-06-03 06:05:00,
2013-06-03 02:15:00,78.7,74.5,29.92,SSW,198,0.0,6.0,87,0.00,,,0.00,Wunderground v.1.15,2013-06-03 06:15:00,
2013-06-03 02:25:00,78.7,74.5,29.91,SSW,198,0.0,6.0,87,0.00,,,0.00,Wunderground v.1.15,2013-06-03 06:25:00,
2013-06-03 02:35:00,78.5,74.3,29.91,SSW,198,0.0,6.0,87,0.00,,,0.00,Wunderground v.1.15,2013-06-03 06:35:00,
2013-06-03 02:45:00,78.4,74.2,29.90,SSW,198,0.0,6.0,87,0.00,,,0.00,Wunderground v.1.15,2013-06-03 06:45:00,
2013-06-03 02:55:00,78.4,74.2,29.91,SSW,198,0.0,6.0,87,0.00,,,0.00,Wunderground v.1.15,2013-06-03 06:55:00,
2013-06-03 03:05:00,78.2,74.0,29.90,SSW,198,0.0,6.0,87,0.00,,,0.00,Wunderground v.1.15,2013-06-03 07:05:00,
2013-06-03 03:15:00,78.1,73.9,29.90,SSW,198,0.0,6.0,87,0.00,,,0.00,Wunderground v.1.15,2013-06-03 07:15:00,
2013-06-03 03:25:00,77.9,74.1,29.90,SSW,198,0.0,6.0,88,0.00,,,0.00,Wunderground v.1.15,2013-06-03 07:25:00,
2013-06-03 03:35:00,77.8,74.0,29.90,SSW,198,0.0,6.0,88,0.00,,,0.00,Wunderground v.1.15,2013-06-03 07:35:00,
2013-06-03 03:45:00,77.6,73.8,29.90,SSW,198,0.0,6.0,88,0.00,,,0.00,Wunderground v.1.15,2013-06-03 07:45:00,
2013-06-03 03:55:00,77.4,73.6,29.90,SSW,198,0.0,6.0,88,0.00,,,0.00,Wunderground v.1.15,2013-06-03 07:55:00,
2013-06-03 04:05:00,77.2,73.7,29.90,SSW,198,0.0,6.0,89,0.00,,,0.00,Wunderground v.1.15,2013-06-03 08:05:00,
2013-06-03 04:15:00,77.3,73.8,29.90,SSW,198,0.0,6.0,89,0.00,,,0.00,Wunderground v.1.15,2013-06-03 08:15:00,
2013-06-03 04:25:00,77.2,73.7,29.89,SSW,198,0.0,6.0,89,0.00,,,0.00,Wunderground v.1.15,2013-06-03 08:25:00,
2013-06-03 04:30:00,77.2,73.7,29.89,SSW,198,0.0,6.0,89,0.00,,,0.00,Wunderground v.1.15,2013-06-03 08:30:00,
2013-06-03 04:35:00,77.1,73.6,29.89,SSW,198,0.0,6.0,89,0.00,,,0.00,Wunderground v.1.15,2013-06-03 08:35:00,
2013-06-03 04:40:00,77.0,73.5,29.89,SSW,198,0.0,6.0,89,0.00,,,0.00,Wunderground v.1.15,2013-06-03 08:40:00,
2013-06-03 04:50:00,76.9,73.4,29.89,SSW,198,0.0,6.0,89,0.00,,,0.00,Wunderground v.1.15,2013-06-03 08:50:00,
2013-06-03 04:55:00,76.8,73.3,29.90,SSW,198,0.0,6.0,89,0.00,,,0.00,Wunderground v.1.15,2013-06-03 08:55:00,
2013-06-03 05:00:00,76.8,73.6,29.90,SSW,198,0.0,6.0,90,0.00,,,0.00,Wunderground v.1.15,2013-06-03 09:00:00,
2013-06-03 05:05:00,76.7,73.5,29.90,SSW,198,0.0,6.0,90,0.00,,,0.00,Wunderground v.1.15,2013-06-03 09:05:00,
2013-06-03 05:10:00,76.7,73.5,29.90,SSW,197,0.0,6.0,90,0.00,,,0.00,Wunderground v.1.15,2013-06-03 09:10:00,
2013-06-03 05:15:00,76.6,73.4,29.90,SSW,197,0.0,6.0,90,0.00,,,0.00,Wunderground v.1.15,2013-06-03 09:15:00,
2013-06-03 05:20:00,76.6,73.4,29.90,SSW,197,0.0,6.0,90,0.00,,,0.00,Wunderground v.1.15,2013-06-03 09:20:00,
2013-06-03 05:30:00,76.5,73.3,29.90,SSW,197,0.0,6.0,90,0.00,,,0.00,Wunderground v.1.15,2013-06-03 09:30:00,
2013-06-03 05:35:00,76.5,73.3,29.90,SSW,197,0.0,6.0,90,0.00,,,0.00,Wunderground v.1.15,2013-06-03 09:35:00,
2013-06-03 05:40:00,76.4,73.2,29.90,SSW,197,0.0,6.0,90,0.00,,,0.00,Wunderground v.1.15,2013-06-03 09:40:00,
2013-06-03 05:45:00,76.4,73.2,29.90,SSW,197,0.0,6.0,90,0.00,,,0.00,Wunderground v.1.15,2013-06-03 09:45:00,
2013-06-03 05:50:00,76.3,73.1,29.90,SSW,197,0.0,6.0,90,0.00,,,0.00,Wunderground v.1.15,2013-06-03 09:50:00,
2013-06-03 06:00:00,76.3,73.1,29.91,SSW,197,0.0,6.0,90,0.00,,,0.00,Wunderground v.1.15,2013-06-03 10:00:00,
2013-06-03 06:05:00,76.3,73.1,29.91,SSW,197,0.0,6.0,90,0.00,,,0.00,Wunderground v.1.15,2013-06-03 10:05:00,
2013-06-03 06:10:00,76.3,73.1,29.90,SSW,197,0.0,6.0,90,0.00,,,0.00,Wunderground v.1.15,2013-06-03 10:10:00,
2013-06-03 06:15:00,76.3,73.1,29.91,SSW,197,0.0,6.0,90,0.00,,,0.00,Wunderground v.1.15,2013-06-03 10:15:00,
2013-06-03 06:20:00,76.3,73.1,29.91,SSW,197,0.0,6.0,90,0.00,,,0.00,Wunderground v.1.15,2013-06-03 10:20:00,
2013-06-03 06:25:00,76.2,73.1,29.91,SSW,197,0.0,6.0,90,0.00,,,0.00,Wunderground v.1.15,2013-06-03 10:25:00,
2013-06-03 06:35:00,76.1,73.0,29.90,SSW,197,0.0,6.0,90,0.00,,,0.00,Wunderground v.1.15,2013-06-03 10:35:00,
2013-06-03 06:40:00,76.1,73.0,29.91,SSW,197,0.0,6.0,90,0.00,,,0.00,Wunderground v.1.15,2013-06-03 10:40:00,
2013-06-03 06:45:00,76.1,73.0,29.91,SSW,197,0.0,6.0,90,0.00,,,0.00,Wunderground v.1.15,2013-06-03 10:45:00,
2013-06-03 06:50:00,76.1,73.0,29.91,SSW,197,0.0,6.0,90,0.00,,,0.00,Wunderground v.1.15,2013-06-03 10:50:00,
2013-06-03 06:55:00,76.1,73.0,29.91,SSW,197,0.0,6.0,90,0.00,,,0.00,Wunderground v.1.15,2013-06-03 10:55:00,
2013-06-03 07:05:00,76.2,73.1,29.91,SSW,197,0.0,6.0,90,0.00,,,0.00,Wunderground v.1.15,2013-06-03 11:05:00,
2013-06-03 07:10:00,76.2,73.1,29.91,SSW,197,0.0,6.0,90,0.00,,,0.00,Wunderground v.1.15,2013-06-03 11:10:00,
2013-06-03 07:15:00,76.3,73.1,29.92,SSW,197,0.0,6.0,90,0.00,,,0.00,Wunderground v.1.15,2013-06-03 11:15:00,
2013-06-03 07:25:00,76.6,73.4,29.92,SSW,197,0.0,6.0,90,0.00,,,0.00,Wunderground v.1.15,2013-06-03 11:25:00,
2013-06-03 07:30:00,76.7,73.5,29.92,SSW,197,0.0,6.0,90,0.00,,,0.00,Wunderground v.1.15,2013-06-03 11:30:00,
2013-06-03 07:35:00,76.9,73.7,29.92,SSW,196,0.0,6.0,90,0.00,,,0.00,Wunderground v.1.15,2013-06-03 11:35:00,
2013-06-03 07:45:00,77.3,73.8,29.92,SE,135,0.0,6.0,89,0.00,,,0.00,Wunderground v.1.15,2013-06-03 11:45:00,
2013-06-03 07:50:00,77.5,74.0,29.93,ESE,122,1.0,1.0,89,0.00,,,0.00,Wunderground v.1.15,2013-06-03 11:50:00,
2013-06-03 07:55:00,77.6,74.1,29.93,SSE,157,1.0,6.0,89,0.00,,,0.00,Wunderground v.1.15,2013-06-03 11:55:00,
2013-06-03 08:00:00,77.6,74.1,29.94,ESE,119,1.0,1.0,89,0.00,,,0.00,Wunderground v.1.15,2013-06-03 12:00:00,
2013-06-03 08:05:00,77.6,74.1,29.94,SE,140,1.0,3.0,89,0.00,,,0.00,Wunderground v.1.15,2013-06-03 12:05:00,
2013-06-03 08:10:00,77.6,74.1,29.94,ESE,109,1.0,1.0,89,0.00,,,0.00,Wunderground v.1.15,2013-06-03 12:10:00,
2013-06-03 08:20:00,77.3,73.8,29.95,ESE,119,2.0,6.0,89,0.00,,,0.00,Wunderground v.1.15,2013-06-03 12:20:00,
2013-06-03 08:25:00,77.1,73.6,29.95,SE,134,3.0,6.0,89,0.00,,,0.00,Wunderground v.1.15,2013-06-03 12:25:00,
2013-06-03 08:30:00,76.8,73.3,29.95,SSE,149,4.0,4.0,89,0.00,,,0.00,Wunderground v.1.15,2013-06-03 12:30:00,
2013-06-03 08:40:00,76.5,73.0,29.95,South,182,3.0,3.0,89,0.00,,,0.00,Wunderground v.1.15,2013-06-03 12:40:00,
2013-06-03 08:50:00,75.9,72.4,29.95,SW,222,2.0,2.0,89,0.16,,,0.02,Wunderground v.1.15,2013-06-03 12:50:00,
2013-06-03 08:55:00,75.9,72.4,29.95,SW,222,1.0,6.0,89,0.09,,,0.02,Wunderground v.1.15,2013-06-03 12:55:00,
2013-06-03 09:00:00,76.0,72.9,29.95,SW,220,0.0,6.0,90,0.05,,,0.02,Wunderground v.1.15,2013-06-03 13:00:00,
2013-06-03 09:05:00,76.0,72.9,29.95,SW,220,0.0,6.0,90,0.05,,,0.03,Wunderground v.1.15,2013-06-03 13:05:00,
2013-06-03 09:10:00,76.1,73.0,29.95,SW,220,0.0,6.0,90,0.05,,,0.03,Wunderground v.1.15,2013-06-03 13:10:00,
2013-06-03 09:15:00,76.1,73.0,29.95,SW,220,0.0,6.0,90,0.04,,,0.03,Wunderground v.1.15,2013-06-03 13:15:00,
2013-06-03 09:20:00,76.0,72.9,29.95,SW,220,0.0,6.0,90,0.00,,,0.03,Wunderground v.1.15,2013-06-03 13:20:00,
2013-06-03 09:25:00,76.0,72.9,29.95,SW,220,0.0,6.0,90,0.00,,,0.03,Wunderground v.1.15,2013-06-03 13:25:00,
2013-06-03 09:30:00,76.1,73.0,29.95,SW,220,0.0,6.0,90,0.00,,,0.03,Wunderground v.1.15,2013-06-03 13:30:00,
2013-06-03 09:35:00,76.2,73.1,29.95,SW,220,0.0,6.0,90,0.00,,,0.03,Wunderground v.1.15,2013-06-03 13:35:00,
2013-06-03 09:45:00,76.6,73.4,29.95,SW,220,0.0,6.0,90,0.00,,,0.03,Wunderground v.1.15,2013-06-03 13:45:00,
2013-06-03 09:50:00,76.9,73.7,29.95,South,189,0.0,6.0,90,0.00,,,0.03,Wunderground v.1.15,2013-06-03 13:50:00,
2013-06-03 09:55:00,77.0,73.8,29.96,South,189,0.0,6.0,90,0.00,,,0.03,Wunderground v.1.15,2013-06-03 13:55:00,
2013-06-03 10:00:00,77.2,74.0,29.95,South,189,0.0,6.0,90,0.00,,,0.03,Wunderground v.1.15,2013-06-03 14:00:00,
2013-06-03 10:05:00,77.5,74.3,29.96,South,189,0.0,6.0,90,0.00,,,0.03,Wunderground v.1.15,2013-06-03 14:05:00,
2013-06-03 10:10:00,77.6,74.4,29.95,South,189,0.0,6.0,90,0.00,,,0.03,Wunderground v.1.15,2013-06-03 14:10:00,
2013-06-03 10:15:00,77.7,74.5,29.95,South,189,0.0,6.0,90,0.00,,,0.03,Wunderground v.1.15,2013-06-03 14:15:00,
2013-06-03 10:20:00,78.2,75.0,29.95,South,189,0.0,6.0,90,0.00,,,0.03,Wunderground v.1.15,2013-06-03 14:20:00,
2013-06-03 10:30:00,78.9,75.7,29.95,ESE,121,0.0,6.0,90,0.00,,,0.03,Wunderground v.1.15,2013-06-03 14:30:00,
2013-06-03 10:35:00,79.3,76.1,29.95,SE,128,1.0,6.0,90,0.00,,,0.03,Wunderground v.1.15,2013-06-03 14:35:00,
2013-06-03 10:40:00,79.5,76.0,29.95,South,170,1.0,6.0,89,0.00,,,0.03,Wunderground v.1.15,2013-06-03 14:40:00,
2013-06-03 10:50:00,79.9,76.0,29.95,SSW,209,2.0,2.0,88,0.00,,,0.03,Wunderground v.1.15,2013-06-03 14:50:00,
2013-06-03 10:55:00,80.2,76.3,29.94,ESE,119,2.0,6.0,88,0.00,,,0.03,Wunderground v.1.15,2013-06-03 14:55:00,
2013-06-03 11:00:00,80.6,76.7,29.94,SSW,206,2.0,2.0,88,0.00,,,0.03,Wunderground v.1.15,2013-06-03 15:00:00,
2013-06-03 11:05:00,81.0,76.8,29.95,South,178,2.0,4.0,87,0.00,,,0.03,Wunderground v.1.15,2013-06-03 15:05:00,
2013-06-03 11:15:00,81.3,76.4,29.95,SE,145,3.0,6.0,85,0.00,,,0.03,Wunderground v.1.15,2013-06-03 15:15:00,
2013-06-03 11:20:00,81.4,76.5,29.95,SSE,164,2.0,6.0,85,0.00,,,0.03,Wunderground v.1.15,2013-06-03 15:20:00,
2013-06-03 11:25:00,81.5,76.6,29.95,SSW,195,3.0,6.0,85,0.00,,,0.03,Wunderground v.1.15,2013-06-03 15:25:00,
2013-06-03 11:35:00,81.9,76.2,29.95,SSE,162,3.0,5.0,83,0.00,,,0.03,Wunderground v.1.15,2013-06-03 15:35:00,
2013-06-03 11:45:00,82.0,76.3,29.95,SW,234,4.0,6.0,83,0.00,,,0.03,Wunderground v.1.15,2013-06-03 15:45:00,
2013-06-03 11:55:00,82.1,76.4,29.95,SE,144,3.0,6.0,83,0.00,,,0.03,Wunderground v.1.15,2013-06-03 15:55:00,
2013-06-03 12:05:00,82.0,76.3,29.95,SW,221,3.0,6.0,83,0.00,,,0.03,Wunderground v.1.15,2013-06-03 16:05:00,
2013-06-03 12:15:00,82.5,76.4,29.95,SSE,158,3.0,6.0,82,0.00,,,0.03,Wunderground v.1.15,2013-06-03 16:15:00,
2013-06-03 12:25:00,82.4,76.7,29.95,South,173,4.0,7.0,83,0.00,,,0.03,Wunderground v.1.15,2013-06-03 16:25:00,
2013-06-03 12:30:00,81.8,76.1,29.95,SE,142,6.0,6.0,83,0.00,,,0.03,Wunderground v.1.15,2013-06-03 16:30:00,
2013-06-03 12:40:00,80.7,75.8,29.95,SSE,152,4.0,4.0,85,1.08,,,0.16,Wunderground v.1.15,2013-06-03 16:40:00,
2013-06-03 12:45:00,80.0,75.4,29.95,SE,137,2.0,6.0,86,0.25,,,0.19,Wunderground v.1.15,2013-06-03 16:45:00,
2013-06-03 12:55:00,79.2,75.3,29.95,South,175,1.0,6.0,88,0.06,,,0.19,Wunderground v.1.15,2013-06-03 16:55:00,
2013-06-03 13:00:00,79.1,75.2,29.95,South,176,1.0,1.0,88,0.04,,,0.19,Wunderground v.1.15,2013-06-03 17:00:00,
2013-06-03 13:10:00,79.2,75.3,29.95,South,171,1.0,6.0,88,0.00,,,0.19,Wunderground v.1.15,2013-06-03 17:10:00,
2013-06-03 13:15:00,79.3,75.8,29.94,SSW,209,2.0,6.0,89,0.00,,,0.19,Wunderground v.1.15,2013-06-03 17:15:00,
2013-06-03 13:25:00,80.0,76.5,29.94,SSE,161,1.0,6.0,89,0.00,,,0.19,Wunderground v.1.15,2013-06-03 17:25:00,
2013-06-03 13:35:00,79.9,76.4,29.94,SSE,155,1.0,6.0,89,0.00,,,0.19,Wunderground v.1.15,2013-06-03 17:35:00,
2013-06-03 13:40:00,79.4,75.2,29.94,WSW,253,2.0,6.0,87,0.00,,,0.19,Wunderground v.1.15,2013-06-03 17:40:00,
2013-06-03 13:45:00,79.6,74.7,29.94,South,191,4.0,6.0,85,0.00,,,0.19,Wunderground v.1.15,2013-06-03 17:45:00,
2013-06-03 13:55:00,80.7,75.4,29.93,SW,236,2.0,6.0,84,0.00,,,0.19,Wunderground v.1.15,2013-06-03 17:55:00,
2013-06-03 14:05:00,81.2,75.5,29.93,WSW,258,5.0,5.0,83,0.00,,,0.19,Wunderground v.1.15,2013-06-03 18:05:00,
2013-06-03 14:10:00,81.4,75.0,29.93,WSW,248,6.0,6.0,81,0.00,,,0.19,Wunderground v.1.15,2013-06-03 18:10:00,
2013-06-03 14:20:00,81.8,75.0,29.93,SSW,205,5.0,6.0,80,0.00,,,0.19,Wunderground v.1.15,2013-06-03 18:20:00,
2013-06-03 14:25:00,81.8,75.4,29.93,South,186,6.0,7.0,81,0.00,,,0.19,Wunderground v.1.15,2013-06-03 18:25:00,
2013-06-03 14:30:00,81.7,74.9,29.93,SSW,192,6.0,6.0,80,0.00,,,0.19,Wunderground v.1.15,2013-06-03 18:30:00,
2013-06-03 14:40:00,81.5,74.7,29.93,South,178,6.0,6.0,80,0.00,,,0.19,Wunderground v.1.15,2013-06-03 18:40:00,
2013-06-03 14:45:00,81.4,74.6,29.93,SSW,200,6.0,6.0,80,0.00,,,0.19,Wunderground v.1.15,2013-06-03 18:45:00,
2013-06-03 14:50:00,81.2,74.4,29.93,South,187,6.0,8.0,80,0.00,,,0.19,Wunderground v.1.15,2013-06-03 18:50:00,
2013-06-03 14:55:00,81.2,75.2,29.93,SW,227,6.0,8.0,82,0.00,,,0.19,Wunderground v.1.15,2013-06-03 18:55:00,
2013-06-03 15:05:00,81.8,75.4,29.93,WSW,243,5.0,6.0,81,0.00,,,0.19,Wunderground v.1.15,2013-06-03 19:05:00,
2013-06-03 15:10:00,81.8,75.0,29.93,South,185,5.0,5.0,80,0.00,,,0.19,Wunderground v.1.15,2013-06-03 19:10:00,
2013-06-03 15:20:00,81.7,74.9,29.92,SSW,209,5.0,5.0,80,0.00,,,0.19,Wunderground v.1.15,2013-06-03 19:20:00,
2013-06-03 15:30:00,81.6,74.8,29.93,SW,234,4.0,6.0,80,0.00,,,0.19,Wunderground v.1.15,2013-06-03 19:30:00,
2013-06-03 15:40:00,81.3,75.3,29.92,WSW,246,4.0,6.0,82,0.00,,,0.19,Wunderground v.1.15,2013-06-03 19:40:00,
2013-06-03 15:45:00,81.1,75.1,29.92,SW,232,4.0,6.0,82,0.00,,,0.19,Wunderground v.1.15,2013-06-03 19:45:00,
2013-06-03 15:55:00,81.0,75.3,29.91,SSW,194,4.0,8.0,83,0.00,,,0.19,Wunderground v.1.15,2013-06-03 19:55:00,
2013-06-03 16:00:00,81.0,75.0,29.91,SSW,198,5.0,10.0,82,0.00,,,0.19,Wunderground v.1.15,2013-06-03 20:00:00,
2013-06-03 16:05:00,81.0,75.0,29.91,SSW,213,6.0,10.0,82,0.00,,,0.19,Wunderground v.1.15,2013-06-03 20:05:00,
2013-06-03 16:10:00,80.9,75.2,29.92,SW,225,5.0,6.0,83,0.00,,,0.19,Wunderground v.1.15,2013-06-03 20:10:00,
2013-06-03 16:15:00,80.7,75.1,29.92,South,190,5.0,10.0,83,0.00,,,0.19,Wunderground v.1.15,2013-06-03 20:15:00,
2013-06-03 16:25:00,80.5,74.9,29.91,South,188,6.0,6.0,83,0.00,,,0.19,Wunderground v.1.15,2013-06-03 20:25:00,
2013-06-03 16:30:00,80.5,75.2,29.92,South,174,5.0,5.0,84,0.00,,,0.19,Wunderground v.1.15,2013-06-03 20:30:00,
2013-06-03 16:35:00,80.0,75.1,29.92,ESE,102,4.0,6.0,85,0.00,,,0.19,Wunderground v.1.15,2013-06-03 20:35:00,
2013-06-03 16:40:00,79.7,75.1,29.91,SE,130,3.0,6.0,86,0.00,,,0.19,Wunderground v.1.15,2013-06-03 20:40:00,
2013-06-03 16:45:00,79.4,75.2,29.91,South,173,3.0,6.0,87,0.00,,,0.19,Wunderground v.1.15,2013-06-03 20:45:00,
2013-06-03 16:50:00,79.3,75.4,29.92,SE,134,2.0,2.0,88,0.00,,,0.19,Wunderground v.1.15,2013-06-03 20:50:00,
2013-06-03 16:55:00,79.3,75.4,29.92,SE,140,1.0,5.0,88,0.00,,,0.20,Wunderground v.1.15,2013-06-03 20:55:00,
2013-06-03 17:05:00,78.3,74.5,29.91,SW,228,4.0,9.0,88,0.45,,,0.28,Wunderground v.1.15,2013-06-03 21:05:00,
2013-06-03 17:10:00,77.6,74.1,29.91,WSW,246,4.0,6.0,89,0.10,,,0.28,Wunderground v.1.15,2013-06-03 21:10:00,
2013-06-03 17:15:00,77.5,74.0,29.92,SSW,209,4.0,6.0,89,0.05,,,0.28,Wunderground v.1.15,2013-06-03 21:15:00,
2013-06-03 17:25:00,77.3,73.8,29.91,SSW,206,4.0,6.0,89,0.00,,,0.29,Wunderground v.1.15,2013-06-03 21:25:00,
2013-06-03 17:30:00,77.0,73.5,29.92,WSW,240,4.0,4.0,89,0.00,,,0.29,Wunderground v.1.15,2013-06-03 21:30:00,
2013-06-03 17:35:00,76.9,73.4,29.92,SSW,200,3.0,7.0,89,0.00,,,0.29,Wunderground v.1.15,2013-06-03 21:35:00,
2013-06-03 17:40:00,77.1,73.6,29.91,South,182,3.0,6.0,89,0.00,,,0.29,Wunderground v.1.15,2013-06-03 21:40:00,
2013-06-03 17:50:00,77.7,74.2,29.91,SW,221,4.0,6.0,89,0.00,,,0.29,Wunderground v.1.15,2013-06-03 21:50:00,
2013-06-03 17:55:00,77.6,74.1,29.91,South,186,5.0,6.0,89,0.00,,,0.29,Wunderground v.1.15,2013-06-03 21:55:00,
2013-06-03 18:00:00,77.7,73.9,29.92,South,185,4.0,4.0,88,0.00,,,0.29,Wunderground v.1.15,2013-06-03 22:00:00,
2013-06-03 18:10:00,78.0,74.2,29.91,SSW,198,4.0,4.0,88,0.00,,,0.29,Wunderground v.1.15,2013-06-03 22:10:00,
2013-06-03 18:15:00,78.1,74.3,29.92,SSW,211,4.0,7.0,88,0.00,,,0.29,Wunderground v.1.15,2013-06-03 22:15:00,
2013-06-03 18:20:00,78.2,74.4,29.91,SSE,152,4.0,6.0,88,0.00,,,0.29,Wunderground v.1.15,2013-06-03 22:20:00,
2013-06-03 18:30:00,78.3,73.8,29.92,SW,219,5.0,5.0,86,0.00,,,0.29,Wunderground v.1.15,2013-06-03 22:30:00,
2013-06-03 18:35:00,78.5,74.3,29.92,SSW,211,4.0,6.0,87,0.00,,,0.29,Wunderground v.1.15,2013-06-03 22:35:00,
2013-06-03 18:40:00,78.6,74.1,29.92,South,173,4.0,6.0,86,0.00,,,0.29,Wunderground v.1.15,2013-06-03 22:40:00,
2013-06-03 18:45:00,78.5,73.6,29.92,SSW,205,5.0,6.0,85,0.00,,,0.29,Wunderground v.1.15,2013-06-03 22:45:00,
2013-06-03 18:55:00,78.7,73.5,29.92,SSE,161,5.0,6.0,84,0.00,,,0.29,Wunderground v.1.15,2013-06-03 22:55:00,
2013-06-03 19:00:00,78.7,73.5,29.92,South,172,4.0,4.0,84,0.00,,,0.29,Wunderground v.1.15,2013-06-03 23:00:00,
2013-06-03 19:05:00,78.7,73.5,29.92,SSE,157,4.0,10.0,84,0.00,,,0.29,Wunderground v.1.15,2013-06-03 23:05:00,
2013-06-03 19:15:00,78.7,73.5,29.93,SSE,155,4.0,6.0,84,0.00,,,0.29,Wunderground v.1.15,2013-06-03 23:15:00,
2013-06-03 19:20:00,78.7,73.5,29.93,SSW,202,3.0,6.0,84,0.00,,,0.29,Wunderground v.1.15,2013-06-03 23:20:00,
2013-06-03 19:25:00,78.6,73.4,29.93,SSE,159,3.0,6.0,84,0.00,,,0.29,Wunderground v.1.15,2013-06-03 23:25:00,
2013-06-03 19:30:00,78.7,73.5,29.93,SSW,207,3.0,3.0,84,0.00,,,0.29,Wunderground v.1.15,2013-06-03 23:30:00,
2013-06-03 19:40:00,78.6,73.7,29.93,SSW,209,4.0,4.0,85,0.00,,,0.29,Wunderground v.1.15,2013-06-03 23:40:00,
2013-06-03 19:45:00,78.6,73.7,29.93,South,172,4.0,6.0,85,0.00,,,0.29,Wunderground v.1.15,2013-06-03 23:45:00,
2013-06-03 19:55:00,78.6,73.7,29.93,SSW,212,4.0,6.0,85,0.00,,,0.29,Wunderground v.1.15,2013-06-03 23:55:00,
2013-06-03 20:00:00,78.5,73.6,29.93,SSE,167,4.0,4.0,85,0.00,,,0.29,Wunderground v.1.15,2013-06-04 00:00:00,
2013-06-03 20:05:00,78.5,73.6,29.93,South,178,3.0,6.0,85,0.00,,,0.29,Wunderground v.1.15,2013-06-04 00:05:00,
2013-06-03 20:15:00,78.5,74.0,29.93,SSE,153,3.0,6.0,86,0.00,,,0.29,Wunderground v.1.15,2013-06-04 00:15:00,
2013-06-03 20:20:00,78.4,73.9,29.94,SSE,168,3.0,6.0,86,0.00,,,0.29,Wunderground v.1.15,2013-06-04 00:20:00,
2013-06-03 20:30:00,78.4,73.5,29.93,SSE,155,3.0,3.0,85,0.00,,,0.29,Wunderground v.1.15,2013-06-04 00:30:00,
2013-06-03 20:35:00,78.3,73.4,29.94,South,186,3.0,6.0,85,0.00,,,0.29,Wunderground v.1.15,2013-06-04 00:35:00,
2013-06-03 20:40:00,78.3,73.4,29.94,SSW,205,3.0,6.0,85,0.00,,,0.29,Wunderground v.1.15,2013-06-04 00:40:00,
2013-06-03 20:45:00,78.3,73.8,29.94,South,188,2.0,6.0,86,0.00,,,0.29,Wunderground v.1.15,2013-06-04 00:45:00,
2013-06-03 20:55:00,78.3,73.8,29.94,SSW,197,3.0,6.0,86,0.00,,,0.29,Wunderground v.1.15,2013-06-04 00:55:00,
2013-06-03 21:00:00,78.4,73.9,29.94,SW,220,3.0,6.0,86,0.00,,,0.29,Wunderground v.1.15,2013-06-04 01:00:00,
2013-06-03 21:05:00,78.4,73.9,29.94,SSW,196,4.0,6.0,86,0.00,,,0.29,Wunderground v.1.15,2013-06-04 01:05:00,
2013-06-03 21:15:00,78.5,74.0,29.95,SSE,158,4.0,6.0,86,0.00,,,0.29,Wunderground v.1.15,2013-06-04 01:15:00,
2013-06-03 21:20:00,78.5,74.0,29.95,South,188,2.0,2.0,86,0.00,,,0.29,Wunderground v.1.15,2013-06-04 01:20:00,
2013-06-03 21:25:00,78.4,73.9,29.95,SW,219,1.0,3.0,86,0.00,,,0.29,Wunderground v.1.15,2013-06-04 01:25:00,
2013-06-03 21:35:00,78.3,73.1,29.95,SSW,207,4.0,6.0,84,0.00,,,0.29,Wunderground v.1.15,2013-06-04 01:35:00,
2013-06-03 21:40:00,78.4,73.2,29.95,South,185,4.0,4.0,84,0.00,,,0.29,Wunderground v.1.15,2013-06-04 01:40:00,
2013-06-03 21:50:00,78.4,73.5,29.95,South,173,3.0,3.0,85,0.00,,,0.29,Wunderground v.1.15,2013-06-04 01:50:00,
2013-06-03 21:55:00,78.4,73.5,29.95,South,177,3.0,6.0,85,0.00,,,0.29,Wunderground v.1.15,2013-06-04 01:55:00,
2013-06-03 22:05:00,78.4,73.5,29.96,SE,127,3.0,6.0,85,0.00,,,0.29,Wunderground v.1.15,2013-06-04 02:05:00,
2013-06-03 22:10:00,78.4,73.5,29.97,WSW,241,2.0,2.0,85,0.00,,,0.29,Wunderground v.1.15,2013-06-04 02:10:00,
2013-06-03 22:20:00,78.4,73.2,29.97,South,190,1.0,1.0,84,0.00,,,0.29,Wunderground v.1.15,2013-06-04 02:20:00,
2013-06-03 22:30:00,78.5,73.6,29.98,South,190,1.0,1.0,85,0.00,,,0.29,Wunderground v.1.15,2013-06-04 02:30:00,
2013-06-03 22:40:00,78.6,73.7,29.98,SSW,198,2.0,2.0,85,0.00,,,0.29,Wunderground v.1.15,2013-06-04 02:40:00,
2013-06-03 22:50:00,78.5,73.6,29.98,SSE,164,2.0,6.0,85,0.00,,,0.29,Wunderground v.1.15,2013-06-04 02:50:00,
2013-06-03 23:00:00,78.6,73.7,29.99,SSE,168,1.0,1.0,85,0.00,,,0.29,Wunderground v.1.15,2013-06-04 03:00:00,
2013-06-03 23:05:00,78.7,73.8,29.99,SSW,195,1.0,3.0,85,0.00,,,0.29,Wunderground v.1.15,2013-06-04 03:05:00,
2013-06-03 23:15:00,78.6,73.7,29.99,South,175,1.0,4.0,85,0.00,,,0.29,Wunderground v.1.15,2013-06-04 03:15:00,
2013-06-03 23:20:00,78.7,73.8,29.99,South,185,1.0,6.0,85,0.00,,,0.29,Wunderground v.1.15,2013-06-04 03:20:00,
2013-06-03 23:30:00,78.7,73.8,29.99,South,186,0.0,6.0,85,0.00,,,0.29,Wunderground v.1.15,2013-06-04 03:30:00,
2013-06-03 23:35:00,78.7,73.8,29.99,South,182,0.0,6.0,85,0.00,,,0.29,Wunderground v.1.15,2013-06-04 03:35:00,
2013-06-03 23:45:00,78.7,73.8,29.98,South,179,0.0,6.0,85,0.00,,,0.29,Wunderground v.1.15,2013-06-04 03:45:00,
2013-06-03 23:55:00,78.6,74.1,29.99,South,179,0.0,6.0,86,0.00,,,0.29,Wunderground v.1.15,2013-06-04 03:55:00,